Time;durP1;ratioP1;P1;durP2;ratioP2;P2;SDS_P1;SDS_P2;PMS_P1;PMS_P2;Temp;Humidity;BMP_temperature;BMP_pressure;BME280_temperature;BME280_humidity;BME280_pressure;Samples;Min_cycle;Max_cycle;Signal;HPM_P1;HPM_P2
2022/01/16 00:00:21;;;;;;;60.20;23.23;;;1.70;99.90;;;;;;4859648;29;20106;-85
2022/01/16 00:05:20;;;;;;;63.90;23.97;;;2.30;99.90;;;;;;4860800;29;20045;-85
2022/01/16 00:07:46;;;;;;;73.00;29.83;;;2.60;99.90;;;;;;4858928;29;20057;-85
2022/01/16 00:10:11;;;;;;;66.90;25.73;;;1.70;99.90;;;;;;4859701;29;20109;-86
2022/01/16 00:12:37;;;;;;;68.47;25.90;;;1.70;99.90;;;;;;4843984;29;20121;-85
2022/01/16 00:15:04;;;;;;;71.07;25.87;;;2.00;99.90;;;;;;4860540;29;20079;-85
2022/01/16 00:17:35;;;;;;;74.93;28.37;;;1.60;99.90;;;;;;4844057;29;20045;-85
2022/01/16 00:20:00;;;;;;;77.97;27.70;;;2.60;99.90;;;;;;4858801;29;20061;-85
2022/01/16 00:22:30;;;;;;;78.33;28.20;;;1.60;99.90;;;;;;4859189;29;20105;-86
2022/01/16 00:24:56;;;;;;;78.23;32.27;;;1.70;99.90;;;;;;4859850;29;20121;-86
2022/01/16 00:27:21;;;;;;;78.07;28.40;;;1.70;99.90;;;;;;4858404;29;20491;-85
2022/01/16 00:29:47;;;;;;;80.93;28.27;;;1.70;99.90;;;;;;4844347;29;20045;-86
2022/01/16 00:32:13;;;;;;;84.63;31.13;;;1.60;99.90;;;;;;4859164;29;20041;-86
2022/01/16 00:34:38;;;;;;;77.03;30.10;;;1.60;99.90;;;;;;4858487;29;20076;-86
2022/01/16 00:37:04;;;;;;;69.47;27.53;;;1.60;99.90;;;;;;4859365;29;20050;-85
2022/01/16 00:39:30;;;;;;;75.27;25.90;;;1.70;99.90;;;;;;4859102;29;20095;-86
2022/01/16 00:41:55;;;;;;;71.10;26.30;;;1.60;99.90;;;;;;4858590;29;20062;-85
2022/01/16 00:44:21;;;;;;;67.47;24.43;;;1.60;99.90;;;;;;4858893;29;20049;-85
2022/01/16 00:46:47;;;;;;;61.07;23.50;;;1.80;99.90;;;;;;4859107;29;20061;-85
2022/01/16 00:49:13;;;;;;;55.57;21.77;;;1.50;99.90;;;;;;4858498;29;20158;-85
2022/01/16 00:51:38;;;;;;;59.03;22.07;;;1.50;99.90;;;;;;4859147;29;20049;-85
2022/01/16 00:54:05;;;;;;;59.63;23.07;;;1.40;99.90;;;;;;4859340;29;20076;-85
2022/01/16 00:56:31;;;;;;;54.07;21.73;;;2.10;99.90;;;;;;4843059;29;20050;-85
2022/01/16 00:58:56;;;;;;;57.30;22.30;;;1.40;99.90;;;;;;4859306;29;20447;-85
2022/01/16 01:01:22;;;;;;;57.70;22.67;;;2.40;99.90;;;;;;4860023;29;20132;-85
2022/01/16 01:03:48;;;;;;;55.43;21.13;;;1.30;99.90;;;;;;4858513;29;20117;-85
2022/01/16 01:06:13;;;;;;;59.07;22.50;;;1.30;99.90;;;;;;4843119;29;20052;-85
2022/01/16 01:08:40;;;;;;;56.43;20.77;;;1.90;99.90;;;;;;4860027;29;20070;-85
2022/01/16 01:11:10;;;;;;;56.37;21.77;;;1.30;99.90;;;;;;4858236;29;20461;-85
2022/01/16 01:13:55;;;;;;;54.63;21.47;;;1.30;99.90;;;;;;4858616;29;20415;-86
2022/01/16 01:16:22;;;;;;;57.17;21.23;;;1.20;99.90;;;;;;4857692;29;20192;-86
2022/01/16 01:18:48;;;;;;;56.27;20.90;;;1.20;99.90;;;;;;4858332;29;20144;-85
2022/01/16 01:21:27;;;;;;;58.90;20.77;;;1.20;99.90;;;;;;4858318;29;20148;-85
2022/01/16 01:23:53;;;;;;;55.73;21.30;;;1.20;99.90;;;;;;4842580;29;20062;-85
2022/01/16 01:26:23;;;;;;;55.93;21.77;;;1.50;99.90;;;;;;4859497;29;20402;-85
2022/01/16 01:28:49;;;;;;;55.03;21.37;;;1.20;99.90;;;;;;4859856;29;20046;-85
2022/01/16 01:31:15;;;;;;;64.23;22.87;;;1.20;99.90;;;;;;4857783;29;20383;-86
2022/01/16 01:33:40;;;;;;;62.63;22.03;;;1.70;99.90;;;;;;4860200;29;20054;-85
2022/01/16 01:36:06;;;;;;;63.97;22.97;;;1.10;99.90;;;;;;4843182;29;20132;-85
2022/01/16 01:38:31;;;;;;;65.47;22.47;;;1.10;99.90;;;;;;4857744;29;20140;-85
2022/01/16 01:40:57;;;;;;;58.57;22.20;;;1.10;99.90;;;;;;4843192;29;20053;-86
2022/01/16 01:51:27;;;;;;;69.13;23.53;;;2.00;99.90;;;;;;4857559;29;20065;-85
2022/01/16 01:53:55;;;;;;;64.00;23.33;;;1.80;99.90;;;;;;4858399;29;20046;-85
2022/01/16 01:56:23;;;;;;;54.73;20.77;;;1.10;99.90;;;;;;4858349;29;20049;-85
2022/01/16 01:58:50;;;;;;;60.40;21.97;;;2.20;99.90;;;;;;4857493;29;20102;-85
2022/01/16 02:01:17;;;;;;;64.80;24.00;;;1.00;99.90;;;;;;4857949;29;20421;-86
2022/01/16 02:03:42;;;;;;;74.30;24.33;;;1.00;99.90;;;;;;4843297;29;20053;-85
2022/01/16 02:06:22;;;;;;;75.60;25.87;;;1.00;99.90;;;;;;4858515;29;20517;-85
2022/01/16 02:08:54;;;;;;;72.43;23.80;;;1.00;99.90;;;;;;4861032;29;20053;-86
2022/01/16 02:11:24;;;;;;;69.77;24.57;;;1.10;99.90;;;;;;4858359;29;20085;-85
2022/01/16 02:13:57;;;;;;;76.57;26.63;;;1.10;99.90;;;;;;4859879;29;20517;-85
2022/01/16 02:35:46;;;;;;;;;;;0.90;99.90;;;;;;4797607;29;20084;-86
2022/01/16 02:38:12;;;;;;;73.13;24.77;;;1.10;99.90;;;;;;4876519;29;20296;-85
2022/01/16 02:40:43;;;;;;;63.77;23.70;;;1.00;99.90;;;;;;4860360;29;20053;-85
2022/01/16 02:43:09;;;;;;;68.03;24.80;;;0.90;99.90;;;;;;4861582;29;20092;-85
2022/01/16 02:45:37;;;;;;;61.57;21.07;;;0.90;99.90;;;;;;4860929;29;20482;-85
2022/01/16 02:48:06;;;;;;;68.50;24.50;;;0.80;99.90;;;;;;4860636;29;20085;-85
2022/01/16 02:50:33;;;;;;;70.37;23.03;;;0.80;99.90;;;;;;4860931;29;20513;-85
2022/01/16 02:53:00;;;;;;;73.33;25.97;;;0.70;99.90;;;;;;4862254;29;20101;-85
2022/01/16 02:55:26;;;;;;;73.03;24.10;;;0.80;99.90;;;;;;4859903;29;20061;-85
2022/01/16 02:57:54;;;;;;;75.27;24.10;;;0.80;99.90;;;;;;4846014;29;20146;-85
2022/01/16 03:00:22;;;;;;;81.77;25.43;;;0.80;99.90;;;;;;4845642;29;20081;-85
2022/01/16 03:02:49;;;;;;;82.20;25.60;;;0.80;99.90;;;;;;4861368;29;20057;-85
2022/01/16 03:05:15;;;;;;;74.17;24.03;;;0.80;99.90;;;;;;4860550;29;20043;-85
2022/01/16 03:07:42;;;;;;;90.00;25.67;;;0.80;99.90;;;;;;4860329;29;20482;-85
2022/01/16 03:10:31;;;;;;;87.77;26.20;;;0.80;99.90;;;;;;4860040;29;20070;-85
2022/01/16 03:12:56;;;;;;;89.50;26.90;;;0.90;99.90;;;;;;4860961;29;20045;-86
2022/01/16 03:15:23;;;;;;;86.50;26.37;;;0.90;99.90;;;;;;4860424;29;20060;-85
2022/01/16 03:23:08;;;;;;;94.13;26.83;;;0.90;99.90;;;;;;4859891;29;20497;-85
2022/01/16 03:25:33;;;;;;;93.07;26.73;;;0.90;99.90;;;;;;4843992;29;20064;-85
2022/01/16 03:27:59;;;;;;;99.47;27.13;;;1.80;99.90;;;;;;4860428;29;20066;-85
2022/01/16 03:30:24;;;;;;;96.43;28.43;;;1.00;99.90;;;;;;4859621;29;20474;-85
2022/01/16 03:32:50;;;;;;;105.90;28.30;;;1.00;99.90;;;;;;4860359;29;20053;-86
2022/01/16 03:35:15;;;;;;;103.67;30.03;;;2.10;99.90;;;;;;4861137;29;20053;-85
2022/01/16 03:37:41;;;;;;;94.50;29.03;;;1.60;99.90;;;;;;4860841;29;20137;-85
2022/01/16 03:40:10;;;;;;;100.47;28.77;;;1.10;99.90;;;;;;4860079;29;20101;-85
2022/01/16 03:42:37;;;;;;;106.93;28.30;;;1.10;99.90;;;;;;4859496;29;20501;-86
2022/01/16 03:45:08;;;;;;;106.70;28.87;;;1.10;99.90;;;;;;4843990;29;20131;-86
2022/01/16 03:47:34;;;;;;;110.73;29.53;;;1.20;99.90;;;;;;4859692;29;20196;-85
2022/01/16 03:50:00;;;;;;;129.23;31.13;;;1.10;99.90;;;;;;4860008;29;20048;-85
2022/01/16 03:52:26;;;;;;;134.93;29.80;;;1.10;99.90;;;;;;4858680;29;20053;-85
2022/01/16 03:54:51;;;;;;;132.50;31.87;;;1.10;99.90;;;;;;4844871;29;20154;-85
2022/01/16 03:57:17;;;;;;;130.60;31.77;;;1.20;99.90;;;;;;4859844;29;20494;-85
2022/01/16 03:59:42;;;;;;;135.87;33.37;;;1.20;99.90;;;;;;4859248;29;20079;-85
2022/01/16 04:02:08;;;;;;;130.97;31.37;;;2.40;99.90;;;;;;4844153;29;20608;-85
2022/01/16 04:04:34;;;;;;;145.33;33.40;;;1.20;99.90;;;;;;4860546;29;20049;-85
2022/01/16 04:07:00;;;;;;;138.37;33.07;;;1.30;99.90;;;;;;4858810;29;20083;-85
2022/01/16 04:09:26;;;;;;;137.60;32.20;;;1.20;99.90;;;;;;4860644;29;20049;-86
2022/01/16 04:11:55;;;;;;;139.87;33.10;;;1.70;99.90;;;;;;4859104;29;20124;-85
2022/01/16 04:17:18;;;;;;;148.10;32.53;;;2.40;99.90;;;;;;4859613;29;20050;-85
2022/01/16 04:19:45;;;;;;;147.70;33.10;;;1.30;99.90;;;;;;4857967;29;20541;-85
2022/01/16 04:22:12;;;;;;;126.03;30.77;;;1.40;99.90;;;;;;4858907;29;20154;-86
2022/01/16 04:24:37;;;;;;;124.67;31.80;;;2.50;99.90;;;;;;4844317;29;20478;-86
2022/01/16 04:27:03;;;;;;;124.67;33.83;;;2.30;99.90;;;;;;4859493;29;20128;-85
2022/01/16 04:29:30;;;;;;;124.00;31.40;;;1.40;99.90;;;;;;4858669;29;20045;-86
2022/01/16 04:31:55;;;;;;;117.10;32.47;;;1.40;99.90;;;;;;4859716;29;20389;-85
2022/01/16 04:34:21;;;;;;;124.23;31.17;;;1.40;99.90;;;;;;4858131;29;20054;-85
2022/01/16 04:36:47;;;;;;;141.43;32.57;;;1.40;99.90;;;;;;4843674;29;20137;-86
2022/01/16 04:39:16;;;;;;;124.00;30.10;;;1.50;99.90;;;;;;4859157;29;20052;-85
2022/01/16 04:44:27;;;;;;;113.80;30.43;;;1.70;99.90;;;;;;4859006;29;20056;-86
2022/01/16 04:46:54;;;;;;;129.30;32.43;;;1.50;99.90;;;;;;4859310;29;20045;-85
2022/01/16 04:49:20;;;;;;;117.50;32.07;;;1.60;99.90;;;;;;4858201;29;20076;-85
2022/01/16 04:51:46;;;;;;;119.93;31.20;;;2.90;99.90;;;;;;4860371;29;20130;-85
2022/01/16 04:54:12;;;;;;;136.70;33.57;;;1.60;99.90;;;;;;4842717;29;20057;-85
2022/01/16 04:56:38;;;;;;;125.17;34.97;;;1.60;99.90;;;;;;4859261;29;20045;-85
2022/01/16 04:59:04;;;;;;;133.43;33.83;;;1.60;99.90;;;;;;4859067;29;20505;-85
2022/01/16 05:01:30;;;;;;;135.70;36.93;;;2.40;99.90;;;;;;4842177;29;20050;-85
2022/01/16 05:03:55;;;;;;;131.73;33.43;;;1.70;99.90;;;;;;4858567;29;20057;-85
2022/01/16 05:06:21;;;;;;;125.47;32.87;;;1.90;99.90;;;;;;4857920;29;20049;-85
2022/01/16 05:08:47;;;;;;;131.90;35.30;;;1.70;99.90;;;;;;4857771;29;20049;-85
2022/01/16 05:11:15;;;;;;;120.27;31.97;;;1.70;99.90;;;;;;4858298;29;20060;-86
2022/01/16 05:18:54;;;;;;;112.20;31.43;;;1.70;99.90;;;;;;4858715;29;20097;-85
2022/01/16 05:21:20;;;;;;;114.93;32.00;;;2.50;99.90;;;;;;4859166;29;20081;-85
2022/01/16 05:23:46;;;;;;;112.57;33.97;;;2.40;99.90;;;;;;4859427;29;20065;-85
2022/01/16 05:26:25;;;;;;;122.03;40.93;;;1.80;99.90;;;;;;4858592;29;20049;-86
2022/01/16 05:28:51;;;;;;;103.07;32.03;;;1.80;99.90;;;;;;4843581;29;20100;-86
2022/01/16 05:31:17;;;;;;;100.97;30.70;;;1.80;99.90;;;;;;4857751;29;20081;-85
2022/01/16 05:33:42;;;;;;;121.57;34.63;;;1.80;99.90;;;;;;4862587;29;20061;-86
2022/01/16 05:36:08;;;;;;;107.80;34.40;;;2.40;99.90;;;;;;4858603;29;20057;-86
2022/01/16 05:38:33;;;;;;;114.43;33.60;;;2.90;99.90;;;;;;4859089;29;20050;-86
2022/01/16 05:40:59;;;;;;;123.00;35.10;;;1.90;99.90;;;;;;4843060;29;20494;-86
2022/01/16 05:43:24;;;;;;;114.87;33.63;;;1.90;99.90;;;;;;4842311;29;20045;-85
2022/01/16 05:45:50;;;;;;;104.93;31.93;;;2.50;99.90;;;;;;4858550;29;20379;-85
2022/01/16 05:48:16;;;;;;;105.43;31.87;;;1.90;99.90;;;;;;4859127;29;20053;-85
2022/01/16 05:50:41;;;;;;;104.30;32.37;;;2.60;99.90;;;;;;4861343;29;20101;-85
2022/01/16 05:53:07;;;;;;;100.57;31.67;;;3.00;99.90;;;;;;4863298;29;20177;-85
2022/01/16 05:55:36;;;;;;;98.47;30.37;;;2.40;99.90;;;;;;4861583;29;20394;-85
2022/01/16 05:58:07;;;;;;;105.00;30.57;;;2.00;99.90;;;;;;4861260;29;20092;-85
2022/01/16 06:00:33;;;;;;;100.80;30.90;;;2.00;99.90;;;;;;4861743;29;20057;-85
2022/01/16 06:02:59;;;;;;;106.87;31.27;;;2.00;99.90;;;;;;4862095;29;20101;-85
2022/01/16 06:05:26;;;;;;;100.10;32.80;;;2.10;99.90;;;;;;4861429;29;20081;-85
2022/01/16 06:07:56;;;;;;;111.10;30.80;;;2.00;99.90;;;;;;4846552;29;20483;-85
2022/01/16 06:10:22;;;;;;;105.30;32.37;;;2.00;99.90;;;;;;4846298;29;20050;-85
2022/01/16 06:12:47;;;;;;;99.07;32.23;;;2.60;99.90;;;;;;4862351;29;20110;-86
2022/01/16 06:15:13;;;;;;;103.43;31.53;;;2.10;99.90;;;;;;4861279;29;20550;-85
2022/01/16 06:17:38;;;;;;;109.40;36.00;;;2.40;99.90;;;;;;4862975;29;20042;-85
2022/01/16 06:20:05;;;;;;;97.13;31.33;;;2.10;99.90;;;;;;4830227;29;20499;-86
2022/01/16 06:22:31;;;;;;;109.40;40.30;;;2.10;99.90;;;;;;4827750;29;20396;-85
2022/01/16 06:24:56;;;;;;;117.83;43.80;;;2.20;99.90;;;;;;4844354;29;20589;-85
2022/01/16 06:27:22;;;;;;;113.63;38.27;;;2.20;99.90;;;;;;4826839;29;20062;-85
2022/01/16 06:29:47;;;;;;;101.53;31.63;;;3.10;99.90;;;;;;4828167;29;20057;-85
2022/01/16 06:32:13;;;;;;;102.57;33.50;;;2.20;99.90;;;;;;4827458;29;20049;-86
2022/01/16 06:34:39;;;;;;;100.10;30.97;;;3.00;99.90;;;;;;4842872;29;20046;-85
2022/01/16 06:37:04;;;;;;;96.07;30.80;;;2.20;99.90;;;;;;4844230;29;20107;-86
2022/01/16 06:39:30;;;;;;;105.83;32.77;;;2.50;99.90;;;;;;4826782;29;20056;-86
2022/01/16 06:41:56;;;;;;;93.27;31.10;;;2.20;99.90;;;;;;4828020;29;20062;-86
2022/01/16 06:44:22;;;;;;;105.77;33.60;;;2.20;99.90;;;;;;4827064;29;20132;-85
2022/01/16 06:46:48;;;;;;;100.87;31.73;;;2.20;99.90;;;;;;4843089;29;20065;-86
2022/01/16 06:49:14;;;;;;;108.70;35.47;;;2.20;99.90;;;;;;4827127;29;20050;-86
2022/01/16 06:51:40;;;;;;;107.40;35.70;;;2.30;99.90;;;;;;4827498;29;20054;-86
2022/01/16 06:54:06;;;;;;;102.80;33.10;;;2.20;99.90;;;;;;4826900;29;20442;-85
2022/01/16 06:56:31;;;;;;;105.33;34.80;;;2.30;99.90;;;;;;4827101;29;20050;-85
2022/01/16 06:58:58;;;;;;;102.27;31.23;;;2.30;99.90;;;;;;4826883;29;20065;-85
2022/01/16 07:01:24;;;;;;;109.90;33.87;;;2.30;99.90;;;;;;4825524;29;20046;-85
2022/01/16 07:03:50;;;;;;;109.13;33.57;;;2.30;99.90;;;;;;4827505;29;20072;-86
2022/01/16 07:06:16;;;;;;;103.07;31.30;;;2.40;99.90;;;;;;4843628;29;20109;-86
2022/01/16 07:08:42;;;;;;;107.70;31.27;;;2.30;99.90;;;;;;4826482;29;20444;-86
2022/01/16 07:11:08;;;;;;;104.07;32.67;;;2.30;99.90;;;;;;4842391;29;20042;-86
2022/01/16 07:13:34;;;;;;;102.80;31.67;;;2.30;99.90;;;;;;4826856;29;20384;-86
2022/01/16 07:16:00;;;;;;;101.63;30.27;;;2.40;99.90;;;;;;4826586;29;20057;-86
2022/01/16 07:18:26;;;;;;;98.90;29.13;;;2.40;99.90;;;;;;4829177;29;20391;-85
2022/01/16 07:20:54;;;;;;;99.93;31.83;;;2.40;99.90;;;;;;4876552;29;20054;-93
2022/01/16 07:23:20;;;;;;;104.53;31.63;;;3.30;99.90;;;;;;4855846;24;20061;-90
2022/01/16 07:25:48;;;;;;;103.23;31.30;;;2.40;99.90;;;;;;4874521;29;20064;-89
2022/01/16 07:28:16;;;;;;;105.47;30.37;;;2.40;99.90;;;;;;4900890;29;20040;-94
2022/01/16 07:30:42;;;;;;;90.93;29.10;;;2.40;99.90;;;;;;4883379;29;20131;-91
2022/01/16 07:33:09;;;;;;;92.63;32.10;;;2.30;99.90;;;;;;4883335;29;20078;-93
2022/01/16 07:35:36;;;;;;;93.50;30.37;;;2.40;99.90;;;;;;4882283;29;20095;-92
2022/01/16 07:38:19;;;;;;;88.63;28.93;;;2.60;99.90;;;;;;4882375;29;20063;-93
2022/01/16 07:40:51;;;;;;;98.80;30.77;;;2.40;99.90;;;;;;4882730;29;20049;-92
2022/01/16 07:43:23;;;;;;;91.80;30.00;;;2.30;99.90;;;;;;4882115;29;20811;-93
2022/01/16 07:46:01;;;;;;;84.60;28.47;;;3.90;99.90;;;;;;4884282;29;20049;-91
2022/01/16 07:48:42;;;;;;;93.80;29.23;;;2.30;99.90;;;;;;4882589;29;20053;-92
2022/01/16 07:51:14;;;;;;;97.50;31.73;;;2.90;99.90;;;;;;4904597;29;20048;-91
2022/01/16 07:53:48;;;;;;;93.97;29.27;;;4.00;99.90;;;;;;4883868;29;20053;-93
2022/01/16 07:56:16;;;;;;;;;;;3.70;99.90;;;;;;4884426;29;20045;-94
2022/01/16 07:58:52;;;;;;;92.70;29.70;;;2.90;99.90;;;;;;4882897;29;19930;-90
2022/01/16 08:01:17;;;;;;;94.67;28.03;;;2.90;99.90;;;;;;4881744;29;20048;-87
2022/01/16 08:03:46;;;;;;;101.00;30.40;;;2.50;99.90;;;;;;4898484;29;20111;-88
2022/01/16 08:06:12;;;;;;;96.07;30.97;;;2.40;99.90;;;;;;4880717;29;20068;-87
2022/01/16 08:08:41;;;;;;;99.10;31.53;;;2.60;99.90;;;;;;4898451;29;20090;-87
2022/01/16 08:11:09;;;;;;;93.70;29.70;;;2.60;99.90;;;;;;4880730;29;20139;-87
2022/01/16 08:13:37;;;;;;;93.00;30.13;;;2.70;99.90;;;;;;4896727;29;20060;-87
2022/01/16 08:16:06;;;;;;;95.37;30.70;;;2.50;99.90;;;;;;4882074;29;20036;-88
2022/01/16 08:18:35;;;;;;;96.83;31.93;;;2.90;99.90;;;;;;4880453;29;20084;-90
2022/01/16 08:21:01;;;;;;;104.70;32.17;;;4.30;99.90;;;;;;4873800;29;20369;-88
2022/01/16 08:24:11;;;;;;;89.50;29.57;;;3.40;99.90;;;;;;4862220;29;20045;-88
2022/01/16 08:26:37;;;;;;;96.83;31.63;;;2.40;99.90;;;;;;4861442;29;20053;-88
2022/01/16 08:29:03;;;;;;;91.07;31.00;;;3.00;99.90;;;;;;4878099;29;20128;-88
2022/01/16 08:31:35;;;;;;;95.23;31.60;;;2.90;99.90;;;;;;4861720;29;20048;-88
2022/01/16 08:34:00;;;;;;;91.33;29.77;;;4.30;99.90;;;;;;4859144;29;20044;-88
2022/01/16 08:36:26;;;;;;;88.83;31.27;;;2.90;99.90;;;;;;4875791;29;21319;-88
2022/01/16 08:38:54;;;;;;;88.47;30.20;;;3.10;99.90;;;;;;4876394;29;20041;-88
2022/01/16 08:41:20;;;;;;;96.60;30.80;;;3.00;99.90;;;;;;4876166;29;20147;-88
2022/01/16 08:43:46;;;;;;;94.73;34.57;;;3.00;99.90;;;;;;4878945;29;20049;-89
2022/01/16 08:46:13;;;;;;;111.73;45.00;;;3.10;99.90;;;;;;4876810;29;20048;-86
2022/01/16 08:48:39;;;;;;;95.93;33.77;;;3.20;99.90;;;;;;4877676;29;20044;-86
2022/01/16 08:51:04;;;;;;;99.90;33.60;;;3.20;99.90;;;;;;4862341;29;20052;-87
2022/01/16 08:53:30;;;;;;;81.37;29.50;;;3.30;99.90;;;;;;4877018;29;20053;-87
2022/01/16 08:55:57;;;;;;;91.03;33.07;;;3.30;99.90;;;;;;4862225;29;20064;-87
2022/01/16 08:58:22;;;;;;;86.63;33.47;;;3.30;99.90;;;;;;4864691;29;20534;-86
2022/01/16 09:00:50;;;;;;;89.57;33.10;;;3.30;99.90;;;;;;4878715;29;20084;-87
2022/01/16 09:03:16;;;;;;;89.70;32.27;;;4.30;99.90;;;;;;4861898;29;20049;-86
2022/01/16 09:05:42;;;;;;;92.83;34.83;;;3.50;99.90;;;;;;4878871;29;20056;-86
2022/01/16 09:08:07;;;;;;;82.40;31.20;;;3.40;99.90;;;;;;4861426;29;20489;-87
2022/01/16 09:10:33;;;;;;;77.40;30.80;;;3.40;99.90;;;;;;4861758;29;20084;-86
2022/01/16 09:12:59;;;;;;;85.37;32.43;;;3.50;99.90;;;;;;4873239;29;20405;-90
2022/01/16 09:15:24;;;;;;;87.20;33.17;;;3.40;99.90;;;;;;4880131;29;20044;-93
2022/01/16 09:17:50;;;;;;;99.13;38.63;;;3.50;99.90;;;;;;4880711;29;20105;-87
2022/01/16 09:20:18;;;;;;;86.23;34.37;;;3.60;99.90;;;;;;4880310;29;20059;-87
2022/01/16 09:22:56;;;;;;;82.47;31.37;;;3.70;99.90;;;;;;4880473;29;20064;-88
2022/01/16 09:25:37;;;;;;;73.10;28.73;;;5.10;99.90;;;;;;4865568;29;20053;-87
2022/01/16 09:28:12;;;;;;;76.67;34.30;;;3.60;99.90;;;;;;4866164;29;20053;-87
2022/01/16 09:30:38;;;;;;;84.13;35.77;;;3.50;99.90;;;;;;4881717;29;20045;-87
2022/01/16 09:33:16;;;;;;;76.13;31.10;;;3.70;99.90;;;;;;4866122;29;20056;-86
2022/01/16 09:38:38;;;;;;;97.93;43.47;;;3.80;99.90;;;;;;4865416;29;20057;-86
2022/01/16 09:41:10;;;;;;;78.90;36.83;;;3.70;99.90;;;;;;4865896;29;20105;-87
2022/01/16 09:43:46;;;;;;;82.93;38.03;;;3.80;99.90;;;;;;4864648;29;20569;-87
2022/01/16 09:46:24;;;;;;;82.73;35.97;;;3.80;99.90;;;;;;4865326;29;20160;-87
2022/01/16 09:48:50;;;;;;;66.23;28.33;;;4.00;99.90;;;;;;4847705;29;20082;-87
2022/01/16 09:51:30;;;;;;;73.63;29.70;;;5.90;99.90;;;;;;4846311;29;20076;-87
2022/01/16 09:54:02;;;;;;;68.90;33.23;;;3.70;99.90;;;;;;4862388;29;20042;-87
2022/01/16 09:56:46;;;;;;;64.83;30.43;;;4.10;99.90;;;;;;4846815;29;20100;-87
2022/01/16 09:59:11;;;;;;;;;;;3.90;99.90;;;;;;4847905;29;20510;-88
2022/01/16 10:01:37;;;;;;;66.33;28.53;;;3.90;99.90;;;;;;4846679;29;19961;-89
2022/01/16 10:04:03;;;;;;;69.60;29.47;;;3.70;99.90;;;;;;4861956;29;20069;-89
2022/01/16 10:06:29;;;;;;;66.13;28.20;;;4.20;99.90;;;;;;4867858;29;20066;-89
2022/01/16 10:08:55;;;;;;;67.50;32.10;;;4.00;99.90;;;;;;4862270;29;20081;-89
2022/01/16 10:11:38;;;;;;;68.30;32.77;;;4.10;99.90;;;;;;4844879;29;20490;-88
2022/01/16 10:14:14;;;;;;;66.77;29.27;;;4.10;99.90;;;;;;4858980;29;20050;-88
2022/01/16 10:16:57;;;;;;;57.87;26.87;;;4.30;99.90;;;;;;4846752;29;20045;-88
2022/01/16 10:19:38;;;;;;;68.10;29.70;;;5.40;99.90;;;;;;4845401;29;20486;-88
2022/01/16 10:22:06;;;;;;;61.70;28.90;;;4.10;99.90;;;;;;4859037;29;20049;-88
2022/01/16 10:24:34;;;;;;;63.90;29.80;;;4.20;99.90;;;;;;4884047;23;20061;-88
2022/01/16 10:27:09;;;;;;;60.13;27.93;;;4.30;99.90;;;;;;4864491;29;20072;-88
2022/01/16 10:30:07;;;;;;;64.60;29.97;;;4.20;99.90;;;;;;4880080;29;20132;-89
2022/01/16 10:32:37;;;;;;;69.97;28.53;;;4.40;99.90;;;;;;4884348;29;20439;-88
2022/01/16 10:35:14;;;;;;;49.87;25.90;;;4.30;99.90;;;;;;4864925;29;20051;-88
2022/01/16 10:37:57;;;;;;;57.50;29.13;;;4.30;99.90;;;;;;4880145;29;20052;-89
2022/01/16 10:40:32;;;;;;;55.93;26.53;;;4.50;99.90;;;;;;4879457;29;20049;-88
2022/01/16 10:42:58;;;;;;;53.50;26.73;;;4.30;99.90;;;;;;4879954;29;20498;-89
2022/01/16 10:45:29;;;;;;;52.83;26.83;;;4.30;99.90;;;;;;4864886;29;20045;-90
2022/01/16 10:47:57;;;;;;;57.43;27.10;;;4.40;99.90;;;;;;4879308;29;20045;-89
2022/01/16 10:50:31;;;;;;;56.67;27.33;;;4.00;99.90;;;;;;4864253;29;20623;-89
2022/01/16 10:53:02;;;;;;;55.90;26.47;;;4.20;99.90;;;;;;4879285;29;20767;-89
2022/01/16 10:55:58;;;;;;;51.33;28.40;;;4.60;99.90;;;;;;4879734;29;20115;-94
2022/01/16 10:58:56;;;;;;;54.50;26.60;;;4.60;99.90;;;;;;4880460;29;20085;-94
2022/01/16 11:01:27;;;;;;;53.03;27.20;;;5.50;99.90;;;;;;4880492;29;20049;-92
2022/01/16 11:03:58;;;;;;;48.03;24.73;;;4.40;99.90;;;;;;4880887;29;20413;-93
2022/01/16 11:06:28;;;;;;;50.53;25.47;;;4.50;99.90;;;;;;4880399;29;20363;-93
2022/01/16 11:09:04;;;;;;;58.60;27.43;;;5.10;99.90;;;;;;4864344;29;20077;-93
2022/01/16 11:11:33;;;;;;;47.77;24.30;;;4.20;99.90;;;;;;4879680;29;20132;-93
2022/01/16 11:14:11;;;;;;;50.20;25.67;;;5.20;99.90;;;;;;4885200;23;20032;-93
2022/01/16 11:17:27;;;;;;;45.23;24.37;;;4.70;99.90;;;;;;4865006;29;20067;-93
2022/01/16 11:19:54;;;;;;;43.90;22.80;;;5.00;99.90;;;;;;4863722;29;20406;-92
2022/01/16 11:22:34;;;;;;;49.03;23.90;;;4.70;99.90;;;;;;4863329;29;20131;-93
2022/01/16 11:25:36;;;;;;;50.03;27.50;;;4.70;99.90;;;;;;4863132;29;20064;-93
2022/01/16 11:28:32;;;;;;;50.70;28.37;;;5.80;99.90;;;;;;4863494;29;20097;-91
2022/01/16 11:31:12;;;;;;;62.03;35.73;;;5.60;99.90;;;;;;4864234;29;20477;-91
2022/01/16 11:33:44;;;;;;;57.13;31.23;;;5.90;99.90;;;;;;4863798;29;20101;-92
2022/01/16 11:36:18;;;;;;;48.10;25.63;;;4.60;99.90;;;;;;4863085;29;20060;-92
2022/01/16 11:38:53;;;;;;;54.42;29.08;;;4.70;99.90;;;;;;4863818;29;20493;-92
2022/01/16 11:41:46;;;;;;;45.07;23.97;;;5.20;99.90;;;;;;4863764;29;20049;-91
2022/01/16 11:44:44;;;;;;;45.03;22.73;;;5.80;99.90;;;;;;4863408;29;20068;-91
2022/01/16 11:47:24;;;;;;;43.37;22.40;;;5.00;99.90;;;;;;4863012;29;20144;-92
2022/01/16 11:50:50;;;;;;;41.40;21.83;;;5.80;99.90;;;;;;4867829;29;20112;-93
2022/01/16 11:53:34;;;;;;;;;;;5.20;99.90;;;;;;4864216;29;20053;-90
2022/01/16 11:55:59;;;;;;;42.92;23.02;;;5.00;99.90;;;;;;4863017;29;19950;-90
2022/01/16 11:59:05;;;;;;;39.33;20.20;;;5.00;99.90;;;;;;4863084;29;20505;-91
2022/01/16 12:01:56;;;;;;;38.60;19.90;;;5.00;99.90;;;;;;4863171;29;20466;-91
2022/01/16 12:04:45;;;;;;;38.83;19.93;;;5.00;99.90;;;;;;4862842;29;20072;-91
2022/01/16 12:07:15;;;;;;;40.43;20.17;;;5.10;99.90;;;;;;4861326;29;20052;-89
2022/01/16 12:10:01;;;;;;;38.50;18.57;;;4.50;99.90;;;;;;4863197;29;20140;-88
2022/01/16 12:12:34;;;;;;;35.53;19.50;;;5.10;99.90;;;;;;4862508;29;20057;-86
2022/01/16 12:15:09;;;;;;;39.30;19.77;;;4.90;99.90;;;;;;4869916;29;20062;-87
2022/01/16 12:17:51;;;;;;;34.57;18.87;;;5.10;99.90;;;;;;4874333;29;20392;-86
2022/01/16 12:20:26;;;;;;;38.70;19.27;;;5.20;99.90;;;;;;4875473;29;20493;-85
2022/01/16 12:23:00;;;;;;;35.30;18.33;;;5.20;99.90;;;;;;4870411;29;20128;-85
2022/01/16 12:25:36;;;;;;;33.97;17.97;;;5.20;99.90;;;;;;4872660;29;20370;-85
2022/01/16 12:28:04;;;;;;;34.47;17.60;;;5.20;99.90;;;;;;4872025;29;20073;-86
2022/01/16 12:30:39;;;;;;;30.87;15.73;;;5.20;99.90;;;;;;4873842;29;20073;-85
2022/01/16 12:33:14;;;;;;;32.00;16.87;;;5.30;99.90;;;;;;4849341;23;20422;-85
2022/01/16 12:35:42;;;;;;;32.07;16.63;;;5.20;99.90;;;;;;4822567;29;20550;-85
2022/01/16 12:38:09;;;;;;;31.53;17.90;;;5.30;99.90;;;;;;4819400;29;20087;-86
2022/01/16 12:40:35;;;;;;;35.73;20.60;;;5.30;99.90;;;;;;4812129;29;20069;-86
2022/01/16 12:43:04;;;;;;;33.40;17.67;;;5.30;99.90;;;;;;4812108;29;20057;-85
2022/01/16 12:45:38;;;;;;;36.40;18.77;;;5.40;99.90;;;;;;4811936;29;20057;-85
2022/01/16 12:48:05;;;;;;;31.40;17.77;;;5.40;99.90;;;;;;4814791;29;20491;-86
2022/01/16 12:50:31;;;;;;;33.67;20.90;;;5.40;99.90;;;;;;4815997;29;20050;-86
2022/01/16 12:52:57;;;;;;;24.47;13.47;;;5.40;99.90;;;;;;4810849;29;20054;-84
2022/01/16 12:55:27;;;;;;;31.00;17.30;;;5.50;99.90;;;;;;4812488;29;20085;-84
2022/01/16 12:57:53;;;;;;;28.20;13.70;;;5.50;99.90;;;;;;4828530;29;20178;-84
2022/01/16 13:00:19;;;;;;;22.47;13.13;;;5.60;99.90;;;;;;4827730;29;20129;-84
2022/01/16 13:02:44;;;;;;;28.07;13.57;;;5.60;99.90;;;;;;4829982;29;20095;-84
2022/01/16 13:05:19;;;;;;;25.90;13.63;;;5.60;99.90;;;;;;4831147;29;20116;-83
2022/01/16 13:07:59;;;;;;;25.50;12.00;;;5.70;99.90;;;;;;4832578;29;20089;-92
2022/01/16 13:10:25;;;;;;;20.50;11.07;;;5.60;99.90;;;;;;4812654;29;20056;-85
2022/01/16 13:12:50;;;;;;;26.93;17.23;;;5.70;99.90;;;;;;4829431;29;20054;-85
2022/01/16 13:15:21;;;;;;;25.40;13.63;;;5.80;99.90;;;;;;4829123;29;20054;-85
2022/01/16 13:17:46;;;;;;;23.10;11.50;;;5.70;99.90;;;;;;4821065;29;20037;-86
2022/01/16 13:20:20;;;;;;;25.47;12.37;;;5.70;99.90;;;;;;4811673;29;20062;-85
2022/01/16 13:22:47;;;;;;;30.08;14.70;;;5.80;99.90;;;;;;4820118;29;20045;-84
2022/01/16 13:25:12;;;;;;;25.97;13.80;;;5.90;99.90;;;;;;4828039;29;20053;-85
2022/01/16 13:27:40;;;;;;;22.67;11.90;;;5.90;99.90;;;;;;4828240;29;20043;-84
2022/01/16 13:30:10;;;;;;;21.60;11.80;;;5.90;99.90;;;;;;4811914;29;20146;-85
2022/01/16 13:32:40;;;;;;;23.93;12.97;;;5.90;99.90;;;;;;4832460;29;20058;-84
2022/01/16 13:35:25;;;;;;;24.17;12.77;;;6.00;99.90;;;;;;4810242;29;20046;-84
2022/01/16 13:37:54;;;;;;;18.90;10.20;;;6.00;99.90;;;;;;4815564;29;20514;-85